createdAt,value
2023-05-09T00:00:35.185Z,15.30
2023-05-09T00:03:05.940Z,15.30
2023-05-09T00:05:34.094Z,15.40
2023-05-09T00:08:02.340Z,15.40
2023-05-09T00:10:31.011Z,15.40
2023-05-09T00:13:01.017Z,15.40
2023-05-09T00:15:29.365Z,15.40
2023-05-09T00:17:57.587Z,15.40
2023-05-09T00:20:25.859Z,15.40
2023-05-09T00:22:54.051Z,15.40
2023-05-09T00:25:22.125Z,15.30
2023-05-09T00:27:50.141Z,15.30
2023-05-09T00:30:19.677Z,15.30
2023-05-09T00:32:47.937Z,15.30
2023-05-09T00:35:16.376Z,15.30
2023-05-09T00:37:44.595Z,15.30
2023-05-09T00:40:13.787Z,15.30
2023-05-09T00:42:41.869Z,15.20
2023-05-09T00:45:11.142Z,15.10
2023-05-09T00:47:40.703Z,15.10
2023-05-09T00:50:10.564Z,15.10
2023-05-09T00:52:39.898Z,15.10
2023-05-09T00:55:09.856Z,15.10
2023-05-09T00:57:38.167Z,15.10
2023-05-09T01:00:13.073Z,15.00
2023-05-09T01:02:44.190Z,15.00
2023-05-09T01:05:13.378Z,15.00
2023-05-09T01:07:47.365Z,15.10
2023-05-09T01:10:24.637Z,15.10
2023-05-09T01:13:00.095Z,15.10
2023-05-09T01:15:32.989Z,15.10
2023-05-09T01:18:10.490Z,15.00
2023-05-09T01:20:45.651Z,15.00
2023-05-09T01:23:41.493Z,15.00
2023-05-09T01:26:19.326Z,14.90
2023-05-09T01:29:07.572Z,14.90
2023-05-09T01:31:41.942Z,14.90
2023-05-09T01:34:12.424Z,14.90
2023-05-09T01:36:43.633Z,14.90
2023-05-09T01:39:14.642Z,14.90
2023-05-09T01:41:42.722Z,14.80
2023-05-09T01:44:14.856Z,14.80
2023-05-09T01:46:45.563Z,14.80
2023-05-09T01:49:14.210Z,14.80
2023-05-09T01:51:43.864Z,14.70
2023-05-09T01:54:13.605Z,14.70
2023-05-09T01:56:43.109Z,14.70
2023-05-09T01:59:16.080Z,14.70
2023-05-09T02:01:46.866Z,14.70
2023-05-09T02:04:16.889Z,14.70
2023-05-09T02:06:45.619Z,14.70
2023-05-09T02:09:13.889Z,14.70
2023-05-09T02:11:41.839Z,14.70
2023-05-09T02:14:09.884Z,14.70
2023-05-09T02:16:39.444Z,14.70
2023-05-09T02:19:09.063Z,14.70
2023-05-09T02:21:37.157Z,14.70
2023-05-09T02:24:06.062Z,14.70
2023-05-09T02:26:34.674Z,14.70
2023-05-09T02:29:04.231Z,14.60
2023-05-09T02:31:32.672Z,14.60
2023-05-09T02:34:01.194Z,14.60
2023-05-09T02:36:31.624Z,14.50
2023-05-09T02:38:59.827Z,14.60
2023-05-09T02:41:28.996Z,14.60
2023-05-09T02:43:57.140Z,14.60
2023-05-09T02:46:25.387Z,14.50
2023-05-09T02:48:53.314Z,14.50
2023-05-09T02:51:21.281Z,14.50
2023-05-09T02:53:50.926Z,14.50
2023-05-09T02:56:19.073Z,14.50
2023-05-09T02:58:51.348Z,14.50
2023-05-09T03:01:19.481Z,14.50
2023-05-09T03:03:47.589Z,14.50
2023-05-09T03:06:15.708Z,14.50
2023-05-09T03:08:43.647Z,14.50
2023-05-09T03:11:13.072Z,14.40
2023-05-09T03:13:41.000Z,14.40
2023-05-09T03:16:09.115Z,14.40
2023-05-09T03:18:37.118Z,14.40
2023-05-09T03:21:05.466Z,14.30
2023-05-09T03:23:33.396Z,14.30
2023-05-09T03:26:01.321Z,14.30
2023-05-09T03:28:30.928Z,14.30
2023-05-09T03:30:58.894Z,14.30
2023-05-09T03:33:26.893Z,14.20
2023-05-09T03:35:54.859Z,14.20
2023-05-09T03:38:24.443Z,14.20
2023-05-09T03:40:53.751Z,14.20
2023-05-09T03:43:21.804Z,14.10
2023-05-09T03:45:51.105Z,14.10
2023-05-09T03:48:19.273Z,14.00
2023-05-09T03:50:47.223Z,13.90
2023-05-09T03:53:15.188Z,14.00
2023-05-09T03:55:43.124Z,14.00
2023-05-09T03:58:13.422Z,14.00
2023-05-09T04:00:42.180Z,14.10
2023-05-09T04:03:11.715Z,14.20
2023-05-09T04:05:39.833Z,14.60
2023-05-09T04:08:07.833Z,15.10
2023-05-09T04:10:35.960Z,15.60
2023-05-09T04:13:04.005Z,16.00
2023-05-09T04:15:32.133Z,16.30
2023-05-09T04:18:00.265Z,16.10
2023-05-09T04:20:31.264Z,15.70
2023-05-09T04:22:59.737Z,15.40
2023-05-09T04:25:29.424Z,15.10
2023-05-09T04:27:57.759Z,15.00
2023-05-09T04:30:27.154Z,14.90
2023-05-09T04:32:55.608Z,14.90
2023-05-09T04:35:23.673Z,14.90
2023-05-09T04:37:53.144Z,14.80
2023-05-09T04:40:21.126Z,14.80
2023-05-09T04:42:49.102Z,14.70
2023-05-09T04:45:17.427Z,14.80
2023-05-09T04:47:45.674Z,14.90
2023-05-09T04:50:14.000Z,15.00
2023-05-09T04:52:42.056Z,15.10
2023-05-09T04:55:11.822Z,15.40
2023-05-09T04:57:40.171Z,15.40
2023-05-09T05:00:11.457Z,15.60
2023-05-09T05:02:39.750Z,15.70
2023-05-09T05:05:18.049Z,15.90
2023-05-09T05:07:53.451Z,16.00
2023-05-09T05:10:22.774Z,17.50
2023-05-09T05:12:50.973Z,19.30
2023-05-09T05:15:19.731Z,21.40
2023-05-09T05:17:47.853Z,22.70
2023-05-09T05:20:15.989Z,23.60
2023-05-09T05:22:43.876Z,23.80
2023-05-09T05:25:12.462Z,24.00
2023-05-09T05:27:42.035Z,23.90
2023-05-09T05:30:11.010Z,24.00
2023-05-09T05:32:39.039Z,24.20
2023-05-09T05:35:07.784Z,24.50
2023-05-09T05:37:35.743Z,24.80
2023-05-09T05:40:03.891Z,24.30
2023-05-09T05:42:31.868Z,24.60
2023-05-09T05:45:04.339Z,24.30
2023-05-09T05:47:33.206Z,23.30
2023-05-09T05:50:01.802Z,22.20
2023-05-09T05:52:29.896Z,21.40
2023-05-09T05:54:57.914Z,21.00
2023-05-09T05:57:26.285Z,20.80
2023-05-09T05:59:54.279Z,20.20
2023-05-09T06:02:23.582Z,20.80
2023-05-09T06:04:52.737Z,21.70
2023-05-09T06:07:21.854Z,21.60
2023-05-09T06:09:49.734Z,21.70
2023-05-09T06:12:17.765Z,22.10
2023-05-09T06:14:45.680Z,22.00
2023-05-09T06:17:13.791Z,22.30
2023-05-09T06:19:43.201Z,23.30
2023-05-09T06:22:11.396Z,23.10
2023-05-09T06:24:39.421Z,22.00
2023-05-09T06:27:07.433Z,20.90
2023-05-09T06:29:35.328Z,20.30
2023-05-09T06:32:03.523Z,20.10
2023-05-09T06:34:31.688Z,20.30
2023-05-09T06:37:01.039Z,21.40
2023-05-09T06:39:29.222Z,22.50
2023-05-09T06:41:57.380Z,24.00
2023-05-09T06:44:25.432Z,24.80
2023-05-09T06:46:53.398Z,24.70
2023-05-09T06:49:21.339Z,24.40
2023-05-09T06:51:49.289Z,24.70
2023-05-09T06:54:18.598Z,25.30
2023-05-09T06:56:46.933Z,26.50
2023-05-09T06:59:16.578Z,27.40
2023-05-09T07:01:44.666Z,28.00
2023-05-09T07:04:12.774Z,28.30
2023-05-09T07:06:40.794Z,28.00
2023-05-09T07:09:09.039Z,28.20
2023-05-09T07:11:38.767Z,28.40
2023-05-09T07:14:06.804Z,28.60
2023-05-09T07:16:37.228Z,28.50
2023-05-09T07:19:07.839Z,28.90
2023-05-09T07:21:35.830Z,29.70
2023-05-09T07:24:03.807Z,29.70
2023-05-09T07:26:31.796Z,29.60
2023-05-09T07:29:01.152Z,29.40
2023-05-09T07:31:29.419Z,30.00
2023-05-09T07:33:57.514Z,30.30
2023-05-09T07:36:25.605Z,30.80
2023-05-09T07:38:54.539Z,31.20
2023-05-09T07:41:22.500Z,31.40
2023-05-09T07:43:50.534Z,31.40
2023-05-09T07:46:20.030Z,31.40
2023-05-09T07:48:48.200Z,31.70
2023-05-09T07:51:16.280Z,31.90
2023-05-09T07:53:44.326Z,32.20
2023-05-09T07:56:13.488Z,32.60
2023-05-09T07:58:41.560Z,33.10
2023-05-09T08:01:09.570Z,32.90
2023-05-09T08:03:39.012Z,32.10
2023-05-09T08:06:07.308Z,31.60
2023-05-09T08:08:36.272Z,31.50
2023-05-09T08:11:06.622Z,31.20
2023-05-09T08:13:34.583Z,30.10
2023-05-09T08:16:02.875Z,29.90
2023-05-09T08:18:31.072Z,29.80
2023-05-09T08:21:01.113Z,30.50
2023-05-09T08:23:30.380Z,30.80
2023-05-09T08:25:59.370Z,31.00
2023-05-09T08:28:28.807Z,31.60
2023-05-09T08:30:58.161Z,31.70
2023-05-09T08:33:26.426Z,31.90
2023-05-09T08:35:54.798Z,32.00
2023-05-09T08:38:24.808Z,32.50
2023-05-09T08:40:52.800Z,32.80
2023-05-09T08:43:24.456Z,32.80
2023-05-09T08:45:55.365Z,32.80
2023-05-09T08:48:24.234Z,33.40
2023-05-09T08:50:52.326Z,33.10
2023-05-09T08:53:21.513Z,33.60
2023-05-09T08:55:51.076Z,33.90
2023-05-09T08:58:22.649Z,34.40
2023-05-09T09:00:51.478Z,34.70
2023-05-09T09:03:19.526Z,34.30
2023-05-09T09:05:49.339Z,34.30
2023-05-09T09:08:19.042Z,33.50
2023-05-09T09:10:48.420Z,33.30
2023-05-09T09:13:19.141Z,33.50
2023-05-09T09:15:49.166Z,33.60
2023-05-09T09:18:23.076Z,33.90
2023-05-09T09:20:54.621Z,34.20
2023-05-09T09:23:25.860Z,33.90
2023-05-09T09:26:00.042Z,33.60
2023-05-09T09:28:29.996Z,33.90
2023-05-09T09:30:58.315Z,33.30
2023-05-09T09:33:27.616Z,33.20
2023-05-09T09:35:57.238Z,33.40
2023-05-09T09:38:26.895Z,34.10
2023-05-09T09:40:55.932Z,34.70
2023-05-09T09:43:30.184Z,34.20
2023-05-09T09:45:58.499Z,33.50
2023-05-09T09:48:27.303Z,33.60
2023-05-09T09:50:56.912Z,33.30
2023-05-09T09:53:30.244Z,33.50
2023-05-09T09:55:58.533Z,33.40
2023-05-09T09:58:26.572Z,33.20
2023-05-09T10:01:09.684Z,33.00
2023-05-09T10:03:39.082Z,32.80
2023-05-09T10:06:11.088Z,33.10
2023-05-09T10:08:39.061Z,33.30
2023-05-09T10:11:07.331Z,33.40
2023-05-09T10:13:37.526Z,32.50
2023-05-09T10:16:07.031Z,32.30
2023-05-09T10:18:37.368Z,32.70
2023-05-09T10:21:08.933Z,32.90
2023-05-09T10:23:39.351Z,32.70
2023-05-09T10:26:17.584Z,32.40
2023-05-09T10:28:49.066Z,32.40
2023-05-09T10:31:22.724Z,31.20
2023-05-09T10:33:53.154Z,30.50
2023-05-09T10:36:24.438Z,30.50
2023-05-09T10:38:55.204Z,31.00
2023-05-09T10:41:24.009Z,31.20
2023-05-09T10:43:52.578Z,30.60
2023-05-09T10:46:20.848Z,29.90
2023-05-09T10:48:49.757Z,29.70
2023-05-09T10:51:19.419Z,29.50
2023-05-09T10:53:49.035Z,29.50
2023-05-09T10:56:29.685Z,29.70
2023-05-09T10:58:57.954Z,30.10
2023-05-09T11:01:35.189Z,30.10
2023-05-09T11:04:09.971Z,30.00
2023-05-09T11:06:46.109Z,30.10
2023-05-09T11:09:34.111Z,30.00
2023-05-09T11:12:09.318Z,29.80
2023-05-09T11:14:42.508Z,29.50
2023-05-09T11:17:12.423Z,29.40
2023-05-09T11:20:00.026Z,29.20
2023-05-09T11:22:32.409Z,29.10
2023-05-09T11:25:06.017Z,29.10
2023-05-09T11:27:40.736Z,29.00
2023-05-09T11:30:10.060Z,28.40
2023-05-09T11:32:47.193Z,28.00
2023-05-09T11:35:17.597Z,28.00
2023-05-09T11:37:49.046Z,28.00
2023-05-09T11:40:18.461Z,27.70
2023-05-09T11:42:48.004Z,27.60
2023-05-09T11:45:17.464Z,27.40
2023-05-09T11:47:47.240Z,27.10
2023-05-09T11:50:17.370Z,27.00
2023-05-09T11:52:47.339Z,26.40
2023-05-09T11:55:19.806Z,26.00
2023-05-09T11:57:49.186Z,25.60
2023-05-09T12:00:18.372Z,25.50
2023-05-09T12:02:47.215Z,25.60
2023-05-09T12:05:17.551Z,25.80
2023-05-09T12:07:48.090Z,25.70
2023-05-09T12:10:20.997Z,25.60
2023-05-09T12:12:50.866Z,25.20
2023-05-09T12:15:20.122Z,25.00
2023-05-09T12:17:51.253Z,25.20
2023-05-09T12:20:20.057Z,25.10
2023-05-09T12:22:54.140Z,25.00
2023-05-09T12:25:23.674Z,24.80
2023-05-09T12:27:54.668Z,24.30
2023-05-09T12:30:23.235Z,24.20
2023-05-09T12:32:51.468Z,24.20
2023-05-09T12:35:23.467Z,24.10
2023-05-09T12:38:00.098Z,24.20
2023-05-09T12:40:28.887Z,24.10
2023-05-09T12:43:00.973Z,24.10
2023-05-09T12:45:29.230Z,24.00
2023-05-09T12:47:58.641Z,23.80
2023-05-09T12:50:34.909Z,23.90
2023-05-09T12:53:05.313Z,24.00
2023-05-09T12:55:40.716Z,24.10
2023-05-09T12:58:09.088Z,24.10
2023-05-09T13:00:44.520Z,23.90
2023-05-09T13:03:25.224Z,23.80
2023-05-09T13:05:57.252Z,23.80
2023-05-09T13:08:27.927Z,23.80
2023-05-09T13:11:08.032Z,23.50
2023-05-09T13:13:43.423Z,23.30
2023-05-09T13:16:14.061Z,23.40
2023-05-09T13:18:43.775Z,23.40
2023-05-09T13:21:11.704Z,23.60
2023-05-09T13:23:42.258Z,23.70
2023-05-09T13:26:10.445Z,23.70
2023-05-09T13:28:38.420Z,23.60
2023-05-09T13:31:06.889Z,23.60
2023-05-09T13:33:35.124Z,23.60
2023-05-09T13:36:03.853Z,23.60
2023-05-09T13:38:35.382Z,23.60
2023-05-09T13:41:04.810Z,23.70
2023-05-09T13:43:32.814Z,23.80
2023-05-09T13:46:00.809Z,23.80
2023-05-09T13:48:28.974Z,23.50
2023-05-09T13:50:57.762Z,23.20
2023-05-09T13:53:25.726Z,23.20
2023-05-09T13:55:53.608Z,23.20
2023-05-09T13:58:23.127Z,23.30
2023-05-09T14:00:51.552Z,23.30
2023-05-09T14:03:19.457Z,23.30
2023-05-09T14:05:48.254Z,23.30
2023-05-09T14:08:16.671Z,23.40
2023-05-09T14:10:44.807Z,23.40
2023-05-09T14:13:12.992Z,23.50
2023-05-09T14:15:42.406Z,23.40
2023-05-09T14:18:10.541Z,23.60
2023-05-09T14:20:40.433Z,23.60
2023-05-09T14:23:08.380Z,23.50
2023-05-09T14:25:36.399Z,23.50
2023-05-09T14:28:04.504Z,23.40
2023-05-09T14:30:32.606Z,23.30
2023-05-09T14:33:01.934Z,23.20
2023-05-09T14:35:32.819Z,23.30
2023-05-09T14:38:01.013Z,23.20
2023-05-09T14:40:32.014Z,23.20
2023-05-09T14:43:02.370Z,23.10
2023-05-09T14:45:30.489Z,23.10
2023-05-09T14:47:58.782Z,23.10
2023-05-09T14:50:28.126Z,23.10
2023-05-09T14:52:56.176Z,23.10
2023-05-09T14:55:24.347Z,23.00
2023-05-09T14:57:52.272Z,23.10
2023-05-09T15:00:22.273Z,23.10
2023-05-09T15:02:50.872Z,23.10
2023-05-09T15:05:19.243Z,23.10
2023-05-09T15:07:48.615Z,23.00
2023-05-09T15:10:16.844Z,22.90
2023-05-09T15:12:45.211Z,22.90
2023-05-09T15:15:15.167Z,22.70
2023-05-09T15:17:44.691Z,22.70
2023-05-09T15:20:15.171Z,23.10
2023-05-09T15:22:43.753Z,22.80
2023-05-09T15:25:13.249Z,22.70
2023-05-09T15:27:41.244Z,22.70
2023-05-09T15:30:11.830Z,22.60
2023-05-09T15:32:42.922Z,22.60
2023-05-09T15:35:11.443Z,22.70
2023-05-09T15:37:39.500Z,22.70
2023-05-09T15:40:09.219Z,22.70
2023-05-09T15:42:39.776Z,22.70
2023-05-09T15:45:09.098Z,22.70
2023-05-09T15:47:37.413Z,22.70
2023-05-09T15:50:06.217Z,22.70
2023-05-09T15:52:34.359Z,22.50
2023-05-09T15:55:02.397Z,22.40
2023-05-09T15:57:31.272Z,22.40
2023-05-09T16:00:00.803Z,22.40
2023-05-09T16:02:31.604Z,22.50
2023-05-09T16:04:59.608Z,22.40
2023-05-09T16:07:27.758Z,22.30
2023-05-09T16:09:55.866Z,22.30
2023-05-09T16:12:25.128Z,22.20
2023-05-09T16:14:53.063Z,22.20
2023-05-09T16:17:22.405Z,22.30
2023-05-09T16:19:50.404Z,22.40
2023-05-09T16:22:18.388Z,22.40
2023-05-09T16:24:47.604Z,22.30
2023-05-09T16:27:15.703Z,22.30
2023-05-09T16:29:43.702Z,22.30
2023-05-09T16:32:11.824Z,22.20
2023-05-09T16:34:41.475Z,22.10
2023-05-09T16:37:09.420Z,22.10
2023-05-09T16:39:37.355Z,22.10
2023-05-09T16:42:05.560Z,22.00
2023-05-09T16:44:33.586Z,22.00
2023-05-09T16:47:01.628Z,21.90
2023-05-09T16:49:29.715Z,21.90
2023-05-09T16:51:59.397Z,21.80
2023-05-09T16:54:27.359Z,21.80
2023-05-09T16:56:55.288Z,21.80
2023-05-09T16:59:23.338Z,21.70
2023-05-09T17:01:52.389Z,21.70
2023-05-09T17:04:20.529Z,21.60
2023-05-09T17:06:49.016Z,21.50
2023-05-09T17:09:18.698Z,21.50
2023-05-09T17:11:46.847Z,21.50
2023-05-09T17:14:14.841Z,21.60
2023-05-09T17:16:43.047Z,21.60
2023-05-09T17:19:10.994Z,21.60
2023-05-09T17:21:41.757Z,21.60
2023-05-09T17:24:10.262Z,21.60
2023-05-09T17:26:39.745Z,21.60
2023-05-09T17:29:07.756Z,22.40
2023-05-09T17:31:35.823Z,21.70
2023-05-09T17:34:04.210Z,21.70
2023-05-09T17:36:33.753Z,21.60
2023-05-09T17:39:01.827Z,21.60
2023-05-09T17:41:29.717Z,21.50
2023-05-09T17:43:59.006Z,21.60
2023-05-09T17:46:27.286Z,21.90
2023-05-09T17:48:55.278Z,21.50
2023-05-09T17:51:23.266Z,21.40
2023-05-09T17:53:52.811Z,21.40
2023-05-09T17:56:22.399Z,21.30
2023-05-09T17:58:52.994Z,21.30
2023-05-09T18:01:22.393Z,21.20
2023-05-09T18:03:50.941Z,21.20
2023-05-09T18:06:19.300Z,21.10
2023-05-09T18:08:47.684Z,21.00
2023-05-09T18:11:15.765Z,21.00
2023-05-09T18:13:43.664Z,20.90
2023-05-09T18:16:11.687Z,20.80
2023-05-09T18:18:44.807Z,20.70
2023-05-09T18:21:13.027Z,20.60
2023-05-09T18:23:42.036Z,20.50
2023-05-09T18:26:10.277Z,20.50
2023-05-09T18:28:40.143Z,20.40
2023-05-09T18:31:11.791Z,20.30
2023-05-09T18:33:41.536Z,20.30
2023-05-09T18:36:11.372Z,20.30
2023-05-09T18:38:40.887Z,20.30
2023-05-09T18:41:10.369Z,20.20
2023-05-09T18:43:42.052Z,20.10
2023-05-09T18:46:10.119Z,20.20
2023-05-09T18:48:39.112Z,20.00
2023-05-09T18:51:08.464Z,20.10
2023-05-09T18:53:37.242Z,20.00
2023-05-09T18:56:05.796Z,20.00
2023-05-09T18:58:34.016Z,19.90
2023-05-09T19:01:02.154Z,19.90
2023-05-09T19:03:30.502Z,19.90
2023-05-09T19:05:59.864Z,19.90
2023-05-09T19:08:29.950Z,19.80
2023-05-09T19:10:58.070Z,19.90
2023-05-09T19:13:26.316Z,19.80
2023-05-09T19:15:54.574Z,19.80
2023-05-09T19:18:22.520Z,19.80
2023-05-09T19:20:50.501Z,19.70
2023-05-09T19:23:19.276Z,19.70
2023-05-09T19:25:49.927Z,19.60
2023-05-09T19:28:18.928Z,19.60
2023-05-09T19:30:47.421Z,19.60
2023-05-09T19:33:15.481Z,19.20
2023-05-09T19:35:43.766Z,19.60
2023-05-09T19:38:12.004Z,19.50
2023-05-09T19:40:40.112Z,19.50
2023-05-09T19:43:09.853Z,19.50
2023-05-09T19:45:37.872Z,19.50
2023-05-09T19:48:06.175Z,19.40
2023-05-09T19:50:34.286Z,19.40
2023-05-09T19:53:02.225Z,19.40
2023-05-09T19:55:30.266Z,19.40
2023-05-09T19:57:58.252Z,19.40
2023-05-09T20:00:27.707Z,19.30
2023-05-09T20:02:55.738Z,19.30
2023-05-09T20:05:23.853Z,19.30
2023-05-09T20:07:51.982Z,19.30
2023-05-09T20:10:19.922Z,19.10
2023-05-09T20:12:48.079Z,19.30
2023-05-09T20:15:15.967Z,19.20
2023-05-09T20:17:46.449Z,19.20
2023-05-09T20:20:14.769Z,19.20
2023-05-09T20:22:42.882Z,19.20
2023-05-09T20:25:11.197Z,19.20
2023-05-09T20:27:39.209Z,19.10
2023-05-09T20:30:08.387Z,19.10
2023-05-09T20:32:36.337Z,19.00
2023-05-09T20:35:06.487Z,19.00
2023-05-09T20:37:34.495Z,19.00
2023-05-09T20:40:02.745Z,19.00
2023-05-09T20:42:30.857Z,19.00
2023-05-09T20:44:58.824Z,18.90
2023-05-09T20:47:27.074Z,18.80
2023-05-09T20:49:56.241Z,18.70
2023-05-09T20:52:27.503Z,18.60
2023-05-09T20:54:55.519Z,18.60
2023-05-09T20:57:23.473Z,18.60
2023-05-09T20:59:51.360Z,18.50
2023-05-09T21:02:19.299Z,18.50
2023-05-09T21:04:47.271Z,18.50
2023-05-09T21:07:19.052Z,18.50
2023-05-09T21:09:49.729Z,18.40
2023-05-09T21:12:17.765Z,18.40
2023-05-09T21:14:45.701Z,18.40
2023-05-09T21:17:13.757Z,18.30
2023-05-09T21:19:41.744Z,18.30
2023-05-09T21:22:09.757Z,18.30
2023-05-09T21:24:37.675Z,18.30
2023-05-09T21:27:06.941Z,18.40
2023-05-09T21:29:34.825Z,18.40
2023-05-09T21:32:02.725Z,18.50
2023-05-09T21:34:30.583Z,18.50
2023-05-09T21:36:58.460Z,18.40
2023-05-09T21:39:26.366Z,18.30
2023-05-09T21:41:54.259Z,18.20
2023-05-09T21:44:23.495Z,18.10
2023-05-09T21:46:51.439Z,18.20
2023-05-09T21:49:20.980Z,18.20
2023-05-09T21:51:49.670Z,18.20
2023-05-09T21:54:17.629Z,18.20
2023-05-09T21:56:45.556Z,18.20
2023-05-09T21:59:13.862Z,18.30
2023-05-09T22:01:45.651Z,18.30
2023-05-09T22:04:13.773Z,18.30
2023-05-09T22:06:42.544Z,18.30
2023-05-09T22:09:10.942Z,18.30
2023-05-09T22:11:38.909Z,18.20
2023-05-09T22:14:07.319Z,18.20
2023-05-09T22:16:35.329Z,18.20
2023-05-09T22:19:04.919Z,18.20
2023-05-09T22:21:33.420Z,18.20
2023-05-09T22:24:01.342Z,18.20
2023-05-09T22:26:29.279Z,18.20
2023-05-09T22:28:57.332Z,18.20
2023-05-09T22:31:25.326Z,18.20
2023-05-09T22:33:53.289Z,18.20
2023-05-09T22:36:22.834Z,18.30
2023-05-09T22:38:50.736Z,18.20
2023-05-09T22:41:18.624Z,18.20
2023-05-09T22:43:46.598Z,18.20
2023-05-09T22:46:14.547Z,18.10
2023-05-09T22:48:42.436Z,18.10
2023-05-09T22:51:10.285Z,18.10
2023-05-09T22:53:39.643Z,18.00
2023-05-09T22:56:09.404Z,17.90
2023-05-09T22:58:37.369Z,17.90
2023-05-09T23:01:05.358Z,17.90
2023-05-09T23:03:33.327Z,17.90
2023-05-09T23:06:01.229Z,17.90
2023-05-09T23:08:29.159Z,17.80
2023-05-09T23:10:58.501Z,17.80
2023-05-09T23:13:26.702Z,17.70
2023-05-09T23:15:54.714Z,17.70
2023-05-09T23:18:23.874Z,17.70
2023-05-09T23:20:51.920Z,17.50
2023-05-09T23:23:19.961Z,17.50
2023-05-09T23:25:47.910Z,17.50
2023-05-09T23:28:17.187Z,17.60
2023-05-09T23:30:45.133Z,17.60
2023-05-09T23:33:13.099Z,17.60
2023-05-09T23:35:41.011Z,17.60
2023-05-09T23:38:09.042Z,17.60
2023-05-09T23:40:37.059Z,17.60
2023-05-09T23:43:04.914Z,17.50
2023-05-09T23:45:34.209Z,17.50
2023-05-09T23:48:02.475Z,17.40
2023-05-09T23:50:30.400Z,17.40
2023-05-09T23:52:58.330Z,17.40
2023-05-09T23:55:26.218Z,17.40
2023-05-09T23:57:54.065Z,17.30
